createdAt,value
2018-08-20T00:00:50.021Z,83.00
2018-08-20T00:04:14.552Z,83.40
2018-08-20T00:07:39.007Z,84.40
2018-08-20T00:11:03.531Z,83.90
2018-08-20T00:14:27.990Z,84.60
2018-08-20T00:17:52.440Z,85.00
2018-08-20T00:21:16.899Z,85.80
2018-08-20T00:24:41.340Z,86.10
2018-08-20T00:28:05.765Z,85.50
2018-08-20T00:31:30.227Z,85.80
2018-08-20T00:34:54.624Z,85.70
2018-08-20T00:38:19.088Z,85.40
2018-08-20T00:41:43.719Z,86.50
2018-08-20T00:45:08.815Z,86.90
2018-08-20T00:48:33.269Z,86.00
2018-08-20T00:51:57.717Z,86.30
2018-08-20T00:55:22.138Z,86.00
2018-08-20T00:58:46.539Z,86.00
2018-08-20T01:02:11.015Z,86.60
2018-08-20T01:05:35.447Z,86.10
2018-08-20T01:09:00.122Z,86.50
2018-08-20T01:12:24.731Z,86.60
2018-08-20T01:15:49.183Z,87.10
2018-08-20T01:19:13.604Z,87.50
2018-08-20T01:22:38.086Z,87.30
2018-08-20T01:26:02.606Z,87.00
2018-08-20T01:29:27.040Z,87.10
2018-08-20T01:32:51.962Z,86.80
2018-08-20T01:36:16.402Z,85.50
2018-08-20T01:39:40.863Z,85.40
2018-08-20T01:43:05.316Z,86.50
2018-08-20T01:46:29.810Z,85.80
2018-08-20T01:49:54.240Z,86.30
2018-08-20T01:53:18.693Z,87.10
2018-08-20T01:56:43.109Z,87.70
2018-08-20T02:00:07.569Z,88.50
2018-08-20T02:03:32.223Z,89.40
2018-08-20T02:06:56.629Z,89.40
2018-08-20T02:10:21.115Z,89.80
2018-08-20T02:13:45.657Z,90.30
2018-08-20T02:17:10.089Z,90.30
2018-08-20T02:20:34.575Z,90.40
2018-08-20T02:23:59.040Z,90.80
2018-08-20T02:27:23.485Z,90.90
2018-08-20T02:30:47.903Z,91.00
2018-08-20T02:34:12.508Z,91.30
2018-08-20T02:37:42.057Z,91.10
2018-08-20T02:41:06.673Z,90.90
2018-08-20T02:44:31.137Z,91.00
2018-08-20T02:47:55.576Z,90.80
2018-08-20T02:51:19.973Z,90.90
2018-08-20T02:54:44.389Z,90.70
2018-08-20T02:58:08.810Z,90.80
2018-08-20T03:01:33.251Z,90.50
2018-08-20T03:04:57.731Z,90.70
2018-08-20T03:08:22.192Z,90.50
2018-08-20T03:11:46.627Z,90.60
2018-08-20T03:15:11.823Z,90.60
2018-08-20T03:18:36.240Z,90.70
2018-08-20T03:22:00.660Z,90.80
2018-08-20T03:25:25.948Z,90.80
2018-08-20T03:28:50.357Z,91.00
2018-08-20T03:32:14.774Z,91.10
2018-08-20T03:35:39.198Z,90.90
2018-08-20T03:39:04.586Z,90.90
2018-08-20T03:42:29.023Z,91.20
2018-08-20T03:45:53.547Z,91.20
2018-08-20T03:49:18.079Z,91.30
2018-08-20T03:52:42.527Z,91.40
2018-08-20T03:56:07.153Z,91.30
2018-08-20T03:59:36.298Z,91.30
2018-08-20T04:03:00.720Z,91.40
2018-08-20T04:06:25.163Z,91.50
2018-08-20T04:09:49.568Z,91.40
2018-08-20T04:13:14.009Z,91.30
2018-08-20T04:16:38.441Z,91.50
2018-08-20T04:20:02.984Z,91.70
2018-08-20T04:23:27.453Z,91.50
2018-08-20T04:26:52.089Z,91.70
2018-08-20T04:30:16.527Z,91.70
2018-08-20T04:33:40.951Z,91.70
2018-08-20T04:37:05.431Z,91.90
2018-08-20T04:40:29.904Z,91.90
2018-08-20T04:43:54.531Z,92.10
2018-08-20T04:47:19.241Z,92.20
2018-08-20T04:50:43.766Z,92.40
2018-08-20T04:54:08.269Z,92.50
2018-08-20T04:57:32.672Z,92.60
2018-08-20T05:00:58.091Z,92.80
2018-08-20T05:04:22.553Z,92.90
2018-08-20T05:07:47.020Z,92.90
2018-08-20T05:11:11.603Z,93.00
2018-08-20T05:14:36.032Z,93.10
2018-08-20T05:18:00.631Z,93.10
2018-08-20T05:21:25.252Z,93.20
2018-08-20T05:24:49.690Z,93.30
2018-08-20T05:28:14.125Z,93.60
2018-08-20T05:31:38.553Z,93.70
2018-08-20T05:35:02.962Z,93.60
2018-08-20T05:38:27.467Z,93.70
2018-08-20T05:41:51.882Z,93.60
2018-08-20T05:45:16.306Z,93.90
2018-08-20T05:48:40.751Z,93.80
2018-08-20T05:52:05.376Z,93.90
2018-08-20T05:55:29.803Z,94.10
2018-08-20T05:58:54.206Z,94.20
2018-08-20T06:02:18.714Z,94.60
2018-08-20T06:05:43.171Z,95.80
2018-08-20T06:09:09.943Z,96.50
2018-08-20T06:12:34.746Z,97.10
2018-08-20T06:15:59.320Z,97.50
2018-08-20T06:19:23.809Z,97.70
2018-08-20T06:22:48.217Z,97.70
2018-08-20T06:26:12.758Z,97.50
2018-08-20T06:29:37.211Z,97.60
2018-08-20T06:33:01.694Z,98.20
2018-08-20T06:36:26.242Z,99.40
2018-08-20T06:39:50.728Z,99.90
2018-08-20T06:43:15.111Z,99.90
2018-08-20T06:46:39.573Z,99.90
2018-08-20T06:50:05.432Z,99.90
2018-08-20T06:53:29.817Z,99.90
2018-08-20T06:56:54.255Z,99.90
2018-08-20T07:00:25.282Z,99.90
2018-08-20T07:03:49.718Z,99.90
2018-08-20T07:07:14.184Z,99.90
2018-08-20T07:10:43.907Z,99.90
2018-08-20T07:14:08.370Z,99.90
2018-08-20T07:17:32.840Z,99.90
2018-08-20T07:20:57.540Z,99.90
2018-08-20T07:24:21.944Z,99.90
2018-08-20T07:27:46.384Z,99.90
2018-08-20T07:31:10.836Z,99.90
2018-08-20T07:34:35.288Z,99.90
2018-08-20T07:37:59.752Z,99.90
2018-08-20T07:41:24.561Z,99.90
2018-08-20T07:44:49.015Z,99.90
2018-08-20T07:48:13.457Z,99.90
2018-08-20T07:51:37.875Z,99.90
2018-08-20T07:55:02.295Z,99.00
2018-08-20T07:58:26.807Z,98.10
2018-08-20T08:01:51.394Z,98.10
2018-08-20T08:05:15.868Z,97.60
2018-08-20T08:08:40.377Z,97.50
2018-08-20T08:12:04.833Z,96.70
2018-08-20T08:15:29.314Z,96.80
2018-08-20T08:18:53.948Z,96.80
2018-08-20T08:22:18.419Z,96.90
2018-08-20T08:25:42.849Z,96.80
2018-08-20T08:29:07.352Z,96.70
2018-08-20T08:32:31.862Z,96.70
2018-08-20T08:35:56.376Z,96.60
2018-08-20T08:39:20.820Z,96.60
2018-08-20T08:42:45.385Z,96.40
2018-08-20T08:46:09.821Z,96.00
2018-08-20T08:49:34.259Z,95.80
2018-08-20T08:52:58.699Z,96.00
2018-08-20T08:56:23.163Z,96.10
2018-08-20T08:59:47.642Z,96.40
2018-08-20T09:03:12.107Z,95.50
2018-08-20T09:06:36.541Z,95.30
2018-08-20T09:10:01.004Z,95.30
2018-08-20T09:13:25.517Z,94.40
2018-08-20T09:16:49.936Z,94.50
2018-08-20T09:20:20.998Z,94.30
2018-08-20T09:23:45.447Z,94.00
2018-08-20T09:27:10.227Z,94.40
2018-08-20T09:30:34.677Z,94.80
2018-08-20T09:33:59.386Z,94.80
2018-08-20T09:37:23.790Z,94.20
2018-08-20T09:40:48.275Z,94.00
2018-08-20T09:44:12.750Z,93.80
2018-08-20T09:47:38.344Z,93.50
2018-08-20T09:51:02.800Z,92.80
2018-08-20T09:54:27.261Z,92.60
2018-08-20T09:57:51.706Z,92.20
2018-08-20T10:01:16.148Z,91.70
2018-08-20T10:04:40.565Z,91.00
2018-08-20T10:08:05.043Z,91.70
2018-08-20T10:11:29.486Z,91.10
2018-08-20T10:14:53.900Z,90.10
2018-08-20T10:18:18.368Z,88.30
2018-08-20T10:21:42.774Z,86.70
2018-08-20T10:25:07.660Z,86.20
2018-08-20T10:28:32.170Z,83.90
2018-08-20T10:31:56.649Z,83.20
2018-08-20T10:35:21.105Z,82.80
2018-08-20T10:38:45.550Z,81.60
2018-08-20T10:42:10.035Z,81.70
2018-08-20T10:45:39.814Z,79.70
2018-08-20T10:49:04.300Z,81.20
2018-08-20T10:52:28.807Z,80.40
2018-08-20T10:55:53.456Z,78.80
2018-08-20T10:59:17.847Z,79.00
2018-08-20T11:02:42.390Z,77.00
2018-08-20T11:06:06.868Z,77.10
2018-08-20T11:09:31.290Z,74.80
2018-08-20T11:12:55.739Z,72.90
2018-08-20T11:16:20.195Z,71.60
2018-08-20T11:19:44.602Z,73.40
2018-08-20T11:23:09.043Z,72.30
2018-08-20T11:26:33.482Z,71.30
2018-08-20T11:29:57.946Z,72.80
2018-08-20T11:33:22.430Z,72.70
2018-08-20T11:36:46.904Z,72.50
2018-08-20T11:40:17.825Z,75.10
2018-08-20T11:43:42.381Z,76.30
2018-08-20T11:47:06.842Z,77.20
2018-08-20T11:50:31.269Z,78.30
2018-08-20T11:53:55.669Z,77.00
2018-08-20T11:57:20.142Z,77.90
2018-08-20T12:00:44.575Z,79.40
2018-08-20T12:04:08.996Z,80.60
2018-08-20T12:07:33.423Z,81.10
2018-08-20T12:10:57.852Z,86.90
2018-08-20T12:14:22.324Z,89.70
2018-08-20T12:17:46.719Z,92.20
2018-08-20T12:21:11.497Z,95.10
2018-08-20T12:24:36.078Z,95.80
2018-08-20T12:28:00.523Z,96.90
2018-08-20T12:31:24.937Z,98.00
2018-08-20T12:34:49.503Z,99.40
2018-08-20T12:38:13.941Z,99.90
2018-08-20T12:41:38.397Z,99.90
2018-08-20T12:45:02.844Z,99.90
2018-08-20T12:48:27.297Z,99.90
2018-08-20T12:51:51.702Z,99.90
2018-08-20T12:55:16.118Z,99.90
2018-08-20T12:58:48.282Z,99.90
2018-08-20T13:02:12.751Z,99.90
2018-08-20T13:05:37.153Z,99.90
2018-08-20T13:09:02.143Z,99.90
2018-08-20T13:12:26.497Z,99.90
2018-08-20T13:15:51.015Z,99.80
2018-08-20T13:19:15.385Z,99.10
2018-08-20T13:22:39.812Z,98.90
2018-08-20T13:26:04.384Z,98.30
2018-08-20T13:29:28.832Z,97.00
2018-08-20T13:32:53.379Z,96.30
2018-08-20T13:36:17.812Z,94.70
2018-08-20T13:39:42.272Z,93.30
2018-08-20T13:43:07.115Z,90.90
2018-08-20T13:46:31.552Z,87.10
2018-08-20T13:50:02.225Z,84.50
2018-08-20T13:53:26.595Z,84.10
2018-08-20T13:56:51.023Z,87.30
2018-08-20T14:00:17.141Z,86.30
2018-08-20T14:03:41.544Z,87.50
2018-08-20T14:07:06.020Z,84.60
2018-08-20T14:10:30.447Z,82.10
2018-08-20T14:13:54.905Z,81.30
2018-08-20T14:17:19.346Z,82.60
2018-08-20T14:20:57.944Z,80.30
2018-08-20T14:24:22.399Z,81.20
2018-08-20T14:27:46.790Z,81.90
2018-08-20T14:31:11.238Z,77.60
2018-08-20T14:34:35.698Z,79.80
2018-08-20T14:38:00.136Z,80.90
2018-08-20T14:41:24.566Z,77.80
2018-08-20T14:44:48.978Z,77.50
2018-08-20T14:48:13.438Z,75.80
2018-08-20T14:51:37.930Z,77.90
2018-08-20T14:55:02.378Z,77.50
2018-08-20T14:58:26.809Z,75.20
2018-08-20T15:01:51.327Z,72.00
2018-08-20T15:05:15.729Z,69.10
2018-08-20T15:08:40.649Z,66.90
2018-08-20T15:12:05.519Z,65.70
2018-08-20T15:15:29.961Z,65.20
2018-08-20T15:18:54.381Z,66.90
2018-08-20T15:22:18.813Z,68.40
2018-08-20T15:25:43.247Z,69.00
2018-08-20T15:29:07.963Z,71.20
2018-08-20T15:32:32.468Z,71.60
2018-08-20T15:35:57.150Z,69.40
2018-08-20T15:39:21.605Z,69.60
2018-08-20T15:46:11.284Z,73.90
2018-08-20T15:49:35.608Z,72.40
2018-08-20T15:53:00.098Z,76.80
2018-08-20T15:56:24.581Z,74.00
2018-08-20T15:59:49.043Z,74.00
2018-08-20T16:03:13.454Z,73.10
2018-08-20T16:06:37.918Z,75.60
2018-08-20T16:10:02.423Z,73.60
2018-08-20T16:13:26.812Z,74.70
2018-08-20T16:16:51.265Z,74.40
2018-08-20T16:20:15.690Z,75.70
2018-08-20T16:23:40.143Z,76.10
2018-08-20T16:27:04.590Z,76.00
2018-08-20T16:30:29.035Z,74.50
2018-08-20T16:33:53.503Z,75.30
2018-08-20T16:37:17.950Z,75.30
2018-08-20T16:40:42.408Z,76.00
2018-08-20T16:44:07.472Z,78.20
2018-08-20T16:47:31.985Z,77.80
2018-08-20T16:50:56.411Z,76.80
2018-08-20T16:54:20.853Z,75.90
2018-08-20T16:57:45.298Z,74.80
2018-08-20T17:01:15.840Z,75.70
2018-08-20T17:04:41.601Z,75.60
2018-08-20T17:08:06.210Z,74.50
2018-08-20T17:11:30.610Z,74.70
2018-08-20T17:14:55.100Z,75.10
2018-08-20T17:18:19.531Z,75.30
2018-08-20T17:21:43.919Z,75.10
2018-08-20T17:25:14.057Z,76.60
2018-08-20T17:28:39.524Z,76.70
2018-08-20T17:32:05.681Z,76.90
2018-08-20T17:35:30.294Z,77.10
2018-08-20T17:38:54.698Z,78.40
2018-08-20T17:42:19.125Z,79.00
2018-08-20T17:45:43.511Z,80.20
2018-08-20T17:49:10.849Z,80.20
2018-08-20T17:52:39.207Z,80.30
2018-08-20T17:56:03.641Z,78.00
2018-08-20T17:59:28.104Z,78.30
2018-08-20T18:02:52.571Z,79.50
2018-08-20T18:06:17.029Z,78.90
2018-08-20T18:09:41.422Z,80.00
2018-08-20T18:13:05.894Z,82.10
2018-08-20T18:16:30.815Z,83.50
2018-08-20T18:19:55.518Z,84.70
2018-08-20T18:23:20.220Z,86.30
2018-08-20T18:26:50.880Z,85.10
2018-08-20T18:30:17.687Z,83.70
2018-08-20T18:33:44.059Z,86.30
2018-08-20T18:37:08.540Z,87.00
2018-08-20T18:40:33.298Z,87.10
2018-08-20T18:43:57.945Z,88.60
2018-08-20T18:47:22.737Z,89.20
2018-08-20T18:50:47.717Z,90.00
2018-08-20T18:54:12.597Z,90.20
2018-08-20T18:57:39.238Z,90.50
2018-08-20T19:01:03.839Z,90.40
2018-08-20T19:04:38.736Z,90.50
2018-08-20T19:08:06.723Z,90.50
2018-08-20T19:11:31.349Z,90.60
2018-08-20T19:14:56.181Z,91.00
2018-08-20T19:18:24.421Z,90.70
2018-08-20T19:21:48.921Z,90.40
2018-08-20T19:25:13.659Z,90.90
2018-08-20T19:28:38.275Z,90.80
2018-08-20T19:32:03.912Z,90.70
2018-08-20T19:35:29.005Z,90.80
2018-08-20T19:38:54.304Z,91.40
2018-08-20T19:42:23.919Z,91.40
2018-08-20T19:45:49.737Z,91.70
2018-08-20T19:49:15.567Z,91.50
2018-08-20T19:52:42.523Z,91.50
2018-08-20T19:56:14.673Z,91.80
2018-08-20T19:59:40.043Z,92.00
2018-08-20T20:03:05.069Z,91.90
2018-08-20T20:06:30.876Z,92.10
2018-08-20T20:09:55.386Z,92.20
2018-08-20T20:13:20.650Z,92.40
2018-08-20T20:16:51.566Z,92.30
2018-08-20T20:20:16.006Z,92.50
2018-08-20T20:23:40.468Z,92.50
2018-08-20T20:27:05.064Z,93.10
2018-08-20T20:30:29.613Z,92.70
2018-08-20T20:33:54.444Z,92.70
2018-08-20T20:37:18.870Z,92.60
2018-08-20T20:40:43.585Z,92.60
2018-08-20T20:44:13.443Z,92.60
2018-08-20T20:47:37.953Z,92.60
2018-08-20T20:51:02.477Z,92.80
2018-08-20T20:54:27.691Z,92.70
2018-08-20T20:57:52.125Z,92.70
2018-08-20T21:01:16.615Z,92.60
2018-08-20T21:04:40.992Z,92.60
2018-08-20T21:08:05.443Z,92.90
2018-08-20T21:11:29.912Z,93.00
2018-08-20T21:14:54.317Z,93.00
2018-08-20T21:18:18.755Z,93.00
2018-08-20T21:21:43.213Z,92.80
2018-08-20T21:25:09.179Z,92.90
2018-08-20T21:28:39.552Z,93.00
2018-08-20T21:32:04.028Z,93.00
2018-08-20T21:35:28.465Z,93.10
2018-08-20T21:38:52.968Z,93.10
2018-08-20T21:42:17.427Z,92.80
2018-08-20T21:45:41.803Z,93.00
2018-08-20T21:49:07.042Z,93.20
2018-08-20T21:52:31.478Z,93.00
2018-08-20T21:55:56.132Z,93.50
2018-08-20T21:59:20.556Z,93.60
2018-08-20T22:02:48.801Z,93.50
2018-08-20T22:06:13.784Z,93.40
2018-08-20T22:09:38.268Z,93.60
2018-08-20T22:13:02.731Z,93.60
2018-08-20T22:16:27.217Z,93.80
2018-08-20T22:19:51.695Z,94.00
2018-08-20T22:23:25.273Z,94.20
2018-08-20T22:27:12.671Z,94.30
2018-08-20T22:30:38.886Z,94.60
2018-08-20T22:34:06.405Z,94.20
2018-08-20T22:37:30.801Z,94.30
2018-08-20T22:40:55.253Z,94.10
2018-08-20T22:44:19.713Z,94.30
2018-08-20T22:47:44.678Z,94.40
2018-08-20T22:51:12.184Z,94.80
2018-08-20T22:54:36.616Z,94.70
2018-08-20T22:58:11.496Z,94.80
2018-08-20T23:01:35.951Z,94.90
2018-08-20T23:05:02.320Z,94.80
2018-08-20T23:08:26.751Z,94.90
2018-08-20T23:11:51.178Z,94.90
2018-08-20T23:15:15.611Z,94.90
2018-08-20T23:18:40.041Z,94.80
2018-08-20T23:22:04.487Z,94.80
2018-08-20T23:25:28.981Z,94.80
2018-08-20T23:28:53.407Z,95.00
2018-08-20T23:32:17.804Z,95.00
2018-08-20T23:35:42.196Z,94.70
2018-08-20T23:39:09.697Z,94.80
2018-08-20T23:42:34.147Z,94.90
2018-08-20T23:45:58.677Z,95.00
2018-08-20T23:49:23.111Z,95.10
2018-08-20T23:52:47.545Z,95.10
2018-08-20T23:56:11.984Z,95.20
2018-08-20T23:59:36.449Z,95.30
